createdAt,value
2022-08-26T00:00:15.071Z,21.15
2022-08-26T00:03:02.889Z,20.77
2022-08-26T00:05:30.880Z,20.55
2022-08-26T00:07:58.870Z,20.19
2022-08-26T00:10:26.974Z,19.96
2022-08-26T00:12:55.090Z,19.96
2022-08-26T00:15:24.341Z,19.93
2022-08-26T00:17:53.429Z,19.89
2022-08-26T00:20:25.613Z,19.81
2022-08-26T00:22:55.689Z,19.77
2022-08-26T00:25:24.787Z,19.80
2022-08-26T00:27:53.301Z,19.85
2022-08-26T00:30:26.808Z,19.91
2022-08-26T00:32:56.389Z,19.99
2022-08-26T00:35:26.244Z,19.98
2022-08-26T00:37:57.254Z,20.11
2022-08-26T00:40:35.597Z,20.08
2022-08-26T00:43:06.975Z,20.10
2022-08-26T00:46:02.296Z,19.97
2022-08-26T00:48:36.008Z,19.84
2022-08-26T00:51:11.660Z,19.75
2022-08-26T00:53:45.789Z,19.83
2022-08-26T00:56:38.321Z,19.85
2022-08-26T00:59:09.034Z,19.82
2022-08-26T01:01:38.191Z,19.78
2022-08-26T01:04:07.008Z,19.79
2022-08-26T01:06:34.989Z,19.76
2022-08-26T01:09:03.564Z,19.46
2022-08-26T01:11:32.896Z,19.04
2022-08-26T01:14:05.131Z,18.68
2022-08-26T01:16:36.466Z,18.43
2022-08-26T01:19:18.920Z,18.28
2022-08-26T01:22:14.193Z,18.16
2022-08-26T01:24:42.862Z,18.12
2022-08-26T01:27:15.665Z,18.05
2022-08-26T01:29:49.370Z,17.98
2022-08-26T01:32:23.247Z,17.90
2022-08-26T01:34:52.966Z,17.78
2022-08-26T01:37:27.798Z,17.68
2022-08-26T01:39:56.858Z,17.59
2022-08-26T01:42:27.581Z,17.56
2022-08-26T01:45:03.741Z,17.60
2022-08-26T01:47:35.725Z,17.67
2022-08-26T01:50:09.605Z,17.74
2022-08-26T01:52:41.865Z,17.82
2022-08-26T01:55:15.747Z,17.87
2022-08-26T01:58:05.560Z,17.86
2022-08-26T02:00:35.677Z,17.93
2022-08-26T02:03:19.167Z,18.08
2022-08-26T02:06:09.277Z,18.34
2022-08-26T02:08:45.003Z,18.44
2022-08-26T02:11:14.448Z,18.48
2022-08-26T02:13:52.426Z,18.40
2022-08-26T02:16:27.329Z,18.33
2022-08-26T02:18:58.407Z,18.33
2022-08-26T02:21:26.726Z,18.30
2022-08-26T02:23:56.392Z,18.25
2022-08-26T02:26:28.389Z,18.15
2022-08-26T02:29:04.133Z,17.98
2022-08-26T02:31:32.461Z,17.80
2022-08-26T02:34:15.699Z,17.62
2022-08-26T02:36:44.201Z,17.44
2022-08-26T02:39:15.019Z,17.35
2022-08-26T02:41:45.750Z,17.34
2022-08-26T02:44:14.054Z,17.31
2022-08-26T02:46:44.514Z,17.27
2022-08-26T02:49:16.988Z,17.19
2022-08-26T02:51:46.843Z,17.09
2022-08-26T02:54:15.511Z,16.99
2022-08-26T02:56:44.013Z,16.99
2022-08-26T02:59:15.536Z,16.99
2022-08-26T03:01:45.445Z,17.00
2022-08-26T03:04:13.934Z,16.98
2022-08-26T03:06:43.472Z,17.04
2022-08-26T03:09:20.784Z,17.04
2022-08-26T03:11:48.697Z,17.00
2022-08-26T03:14:17.258Z,16.99
2022-08-26T03:16:48.441Z,17.01
2022-08-26T03:19:17.679Z,17.06
2022-08-26T03:21:47.337Z,17.11
2022-08-26T03:24:17.762Z,17.13
2022-08-26T03:26:52.641Z,17.23
2022-08-26T03:29:41.424Z,17.26
2022-08-26T03:32:09.684Z,17.25
2022-08-26T03:34:38.858Z,17.34
2022-08-26T03:37:07.039Z,17.48
2022-08-26T03:39:35.596Z,17.37
2022-08-26T03:42:03.986Z,17.29
2022-08-26T03:44:42.094Z,17.29
2022-08-26T03:47:10.659Z,17.42
2022-08-26T03:49:39.060Z,17.51
2022-08-26T03:52:07.457Z,17.51
2022-08-26T03:54:35.926Z,17.56
2022-08-26T03:57:04.329Z,17.57
2022-08-26T03:59:33.371Z,17.47
2022-08-26T04:02:01.680Z,17.65
2022-08-26T04:04:30.746Z,17.71
2022-08-26T04:06:59.927Z,17.83
2022-08-26T04:09:28.174Z,17.85
2022-08-26T04:11:58.873Z,17.83
2022-08-26T04:14:28.542Z,17.74
2022-08-26T04:16:57.075Z,17.71
2022-08-26T04:19:27.446Z,17.66
2022-08-26T04:21:55.700Z,17.70
2022-08-26T04:24:26.886Z,17.82
2022-08-26T04:26:56.821Z,18.06
2022-08-26T04:29:27.366Z,18.26
2022-08-26T04:31:56.647Z,18.36
2022-08-26T04:34:28.750Z,18.31
2022-08-26T04:36:58.933Z,18.38
2022-08-26T04:39:28.525Z,18.41
2022-08-26T04:41:57.905Z,18.44
2022-08-26T04:44:29.593Z,18.37
2022-08-26T04:46:58.973Z,18.25
2022-08-26T04:49:28.006Z,18.24
2022-08-26T04:52:05.508Z,18.33
2022-08-26T04:55:00.995Z,18.41
2022-08-26T04:57:29.185Z,18.51
2022-08-26T04:59:58.221Z,18.43
2022-08-26T05:02:26.420Z,18.42
2022-08-26T05:04:55.179Z,18.40
2022-08-26T05:07:23.651Z,18.30
2022-08-26T05:09:54.010Z,18.21
2022-08-26T05:12:23.598Z,18.21
2022-08-26T05:14:52.837Z,18.33
2022-08-26T05:17:21.382Z,18.35
2022-08-26T05:19:51.006Z,18.38
2022-08-26T05:22:20.620Z,18.39
2022-08-26T05:24:49.931Z,18.46
2022-08-26T05:27:18.108Z,18.56
2022-08-26T05:29:46.314Z,18.71
2022-08-26T05:32:59.926Z,18.78
2022-08-26T05:35:34.607Z,18.91
2022-08-26T05:38:05.906Z,19.06
2022-08-26T05:40:44.687Z,19.24
2022-08-26T05:43:13.689Z,19.47
2022-08-26T05:45:46.072Z,19.68
2022-08-26T05:48:17.096Z,19.86
2022-08-26T05:50:51.263Z,20.05
2022-08-26T05:53:21.472Z,20.16
2022-08-26T05:55:51.936Z,20.27
2022-08-26T05:58:21.814Z,20.40
2022-08-26T06:01:02.260Z,20.51
2022-08-26T06:03:32.445Z,20.69
2022-08-26T06:06:05.103Z,20.84
2022-08-26T06:08:36.351Z,20.98
2022-08-26T06:11:18.644Z,21.07
2022-08-26T06:14:03.074Z,21.21
2022-08-26T06:16:44.446Z,21.35
2022-08-26T06:19:19.379Z,21.39
2022-08-26T06:21:55.082Z,21.46
2022-08-26T06:24:48.167Z,21.62
2022-08-26T06:27:30.597Z,21.72
2022-08-26T06:30:10.035Z,21.74
2022-08-26T06:32:45.828Z,21.79
2022-08-26T06:35:21.921Z,21.88
2022-08-26T06:37:57.556Z,21.90
2022-08-26T06:40:33.389Z,21.88
2022-08-26T06:43:09.371Z,21.97
2022-08-26T06:45:47.833Z,22.02
2022-08-26T06:48:24.965Z,22.00
2022-08-26T06:51:24.189Z,22.14
2022-08-26T06:54:00.206Z,22.22
2022-08-26T06:56:41.998Z,22.32
2022-08-26T06:59:18.497Z,22.42
2022-08-26T07:01:54.982Z,22.51
2022-08-26T07:04:30.121Z,22.63
2022-08-26T07:07:06.649Z,22.76
2022-08-26T07:09:43.524Z,22.85
2022-08-26T07:12:17.730Z,22.95
2022-08-26T07:14:52.047Z,23.04
2022-08-26T07:17:21.990Z,23.11
2022-08-26T07:19:58.610Z,23.13
2022-08-26T07:22:27.424Z,23.23
2022-08-26T07:24:55.301Z,23.29
2022-08-26T07:27:30.862Z,23.28
2022-08-26T07:29:58.893Z,23.22
2022-08-26T07:32:27.217Z,23.19
2022-08-26T07:34:55.159Z,23.28
2022-08-26T07:37:23.313Z,23.38
2022-08-26T07:39:51.588Z,23.45
2022-08-26T07:42:20.898Z,23.56
2022-08-26T07:44:49.560Z,23.60
2022-08-26T07:47:25.287Z,23.60
2022-08-26T07:49:57.699Z,23.62
2022-08-26T07:52:37.658Z,23.66
2022-08-26T07:55:15.231Z,23.72
2022-08-26T07:57:49.209Z,23.81
2022-08-26T08:00:17.426Z,23.93
2022-08-26T08:02:45.545Z,24.03
2022-08-26T08:05:17.768Z,24.11
2022-08-26T08:07:46.652Z,24.19
2022-08-26T08:10:18.787Z,24.25
2022-08-26T08:12:50.396Z,24.36
2022-08-26T08:15:21.247Z,24.51
2022-08-26T08:17:50.558Z,24.60
2022-08-26T08:20:22.478Z,24.66
2022-08-26T08:22:52.631Z,24.73
2022-08-26T08:25:22.588Z,24.83
2022-08-26T08:27:56.022Z,24.90
2022-08-26T08:30:35.015Z,24.99
2022-08-26T08:33:03.486Z,25.06
2022-08-26T08:35:40.411Z,25.16
2022-08-26T08:38:17.423Z,25.24
2022-08-26T08:40:46.119Z,25.33
2022-08-26T08:43:37.542Z,25.43
2022-08-26T08:46:17.640Z,25.56
2022-08-26T08:48:51.503Z,25.64
2022-08-26T08:51:27.625Z,25.73
2022-08-26T08:53:56.938Z,25.83
2022-08-26T08:56:41.763Z,25.94
2022-08-26T08:59:20.585Z,26.04
2022-08-26T09:01:54.130Z,26.20
2022-08-26T09:05:03.067Z,26.36
2022-08-26T09:07:47.080Z,26.49
2022-08-26T09:10:33.955Z,26.52
2022-08-26T09:13:25.308Z,26.58
2022-08-26T09:15:55.199Z,26.67
2022-08-26T09:18:35.545Z,26.80
2022-08-26T09:21:09.484Z,26.96
2022-08-26T09:23:42.787Z,27.10
2022-08-26T09:26:30.663Z,27.18
2022-08-26T09:29:03.397Z,27.29
2022-08-26T09:31:35.937Z,27.39
2022-08-26T09:34:23.160Z,27.46
2022-08-26T09:36:56.637Z,27.48
2022-08-26T09:39:31.583Z,27.54
2022-08-26T09:42:10.373Z,27.57
2022-08-26T09:45:06.610Z,27.60
2022-08-26T09:47:38.414Z,27.61
2022-08-26T09:50:34.358Z,27.68
2022-08-26T09:53:09.942Z,27.75
2022-08-26T09:55:43.908Z,27.79
2022-08-26T09:58:32.573Z,27.88
2022-08-26T10:01:04.400Z,27.96
2022-08-26T10:03:36.180Z,28.07
2022-08-26T10:06:07.659Z,28.19
2022-08-26T10:08:42.448Z,28.25
2022-08-26T10:11:35.486Z,28.33
2022-08-26T10:14:11.196Z,28.43
2022-08-26T10:16:58.399Z,28.54
2022-08-26T10:19:56.135Z,28.59
2022-08-26T10:22:52.691Z,28.71
2022-08-26T10:25:27.703Z,28.92
2022-08-26T10:28:51.171Z,29.05
2022-08-26T10:31:40.164Z,29.13
2022-08-26T10:34:12.354Z,29.16
2022-08-26T10:37:13.922Z,29.22
2022-08-26T10:40:07.752Z,29.41
2022-08-26T10:42:54.547Z,29.55
2022-08-26T10:45:29.801Z,29.59
2022-08-26T10:48:07.545Z,29.57
2022-08-26T10:50:41.772Z,29.57
2022-08-26T10:53:39.878Z,29.63
2022-08-26T10:56:44.812Z,29.67
2022-08-26T11:00:31.413Z,29.72
2022-08-26T11:03:39.313Z,29.84
2022-08-26T11:06:19.991Z,29.96
2022-08-26T11:08:48.017Z,30.06
2022-08-26T11:11:40.891Z,30.19
2022-08-26T11:14:11.530Z,30.24
2022-08-26T11:16:45.318Z,30.20
2022-08-26T11:19:56.807Z,30.24
2022-08-26T11:22:33.382Z,30.40
2022-08-26T11:25:09.450Z,30.60
2022-08-26T11:27:40.281Z,30.79
2022-08-26T11:30:10.822Z,30.86
2022-08-26T11:32:41.294Z,30.89
2022-08-26T11:35:19.431Z,30.96
2022-08-26T11:38:04.407Z,31.08
2022-08-26T11:40:38.564Z,31.15
2022-08-26T11:43:13.007Z,31.17
2022-08-26T11:45:47.597Z,31.19
2022-08-26T11:48:31.215Z,31.21
2022-08-26T11:51:12.491Z,31.26
2022-08-26T11:53:47.178Z,31.31
2022-08-26T11:56:28.823Z,31.35
2022-08-26T11:59:03.558Z,31.46
2022-08-26T12:01:35.772Z,31.57
2022-08-26T12:04:10.716Z,31.72
2022-08-26T12:06:45.898Z,31.74
2022-08-26T12:09:30.533Z,31.78
2022-08-26T12:12:22.088Z,31.82
2022-08-26T12:15:06.369Z,31.89
2022-08-26T12:17:34.532Z,32.02
2022-08-26T12:20:17.075Z,32.17
2022-08-26T12:22:48.096Z,32.29
2022-08-26T12:25:24.036Z,32.28
2022-08-26T12:27:54.068Z,32.28
2022-08-26T12:30:26.266Z,32.27
2022-08-26T12:33:22.186Z,32.34
2022-08-26T12:35:56.325Z,32.36
2022-08-26T12:38:27.464Z,32.28
2022-08-26T12:40:57.170Z,32.36
2022-08-26T12:43:44.704Z,32.48
2022-08-26T12:46:30.044Z,32.63
2022-08-26T12:49:01.572Z,32.72
2022-08-26T12:51:33.043Z,32.77
2022-08-26T12:54:06.812Z,32.82
2022-08-26T12:56:41.407Z,32.84
2022-08-26T12:59:24.434Z,32.87
2022-08-26T13:01:54.216Z,33.03
2022-08-26T13:04:31.318Z,33.10
2022-08-26T13:07:18.356Z,33.18
2022-08-26T13:09:46.372Z,33.38
2022-08-26T13:12:28.272Z,33.44
2022-08-26T13:14:58.939Z,33.46
2022-08-26T13:17:29.289Z,33.48
2022-08-26T13:20:03.230Z,33.61
2022-08-26T13:22:32.906Z,33.58
2022-08-26T13:25:01.116Z,33.54
2022-08-26T13:27:29.250Z,33.52
2022-08-26T13:29:58.007Z,33.57
2022-08-26T13:32:27.306Z,33.63
2022-08-26T13:34:59.736Z,33.72
2022-08-26T13:37:31.504Z,33.74
2022-08-26T13:40:07.690Z,33.75
2022-08-26T13:42:35.837Z,33.73
2022-08-26T13:45:04.845Z,33.85
2022-08-26T13:47:32.900Z,33.97
2022-08-26T13:50:01.033Z,34.03
2022-08-26T13:52:30.565Z,34.14
2022-08-26T13:55:00.679Z,34.24
2022-08-26T13:57:30.341Z,34.24
2022-08-26T14:00:01.917Z,34.23
2022-08-26T14:02:37.916Z,34.33
2022-08-26T14:05:06.513Z,34.40
2022-08-26T14:07:34.601Z,34.35
2022-08-26T14:10:03.140Z,34.48
2022-08-26T14:12:31.333Z,34.69
2022-08-26T14:15:00.585Z,34.72
2022-08-26T14:17:28.733Z,34.85
2022-08-26T14:19:59.015Z,35.08
2022-08-26T14:22:27.965Z,35.36
2022-08-26T14:24:56.655Z,35.46
2022-08-26T14:27:25.652Z,35.34
2022-08-26T14:29:54.493Z,35.34
2022-08-26T14:32:27.411Z,35.31
2022-08-26T14:34:56.196Z,35.23
2022-08-26T14:37:24.419Z,35.08
2022-08-26T14:39:52.677Z,34.90
2022-08-26T14:42:26.593Z,34.77
2022-08-26T14:45:02.914Z,34.72
2022-08-26T14:47:31.365Z,34.62
2022-08-26T14:49:59.359Z,34.71
2022-08-26T14:52:27.929Z,34.65
2022-08-26T14:54:55.980Z,34.55
2022-08-26T14:57:24.209Z,34.73
2022-08-26T14:59:52.362Z,35.02
2022-08-26T15:02:32.626Z,35.19
2022-08-26T15:05:04.281Z,35.45
2022-08-26T15:07:32.336Z,35.47
2022-08-26T15:10:00.800Z,35.38
2022-08-26T15:12:28.975Z,35.25
2022-08-26T15:14:57.273Z,35.24
2022-08-26T15:17:26.467Z,35.27
2022-08-26T15:19:54.565Z,35.31
2022-08-26T15:22:23.052Z,35.29
2022-08-26T15:24:51.758Z,35.32
2022-08-26T15:27:21.871Z,35.26
2022-08-26T15:29:50.621Z,35.13
2022-08-26T15:32:18.829Z,35.18
2022-08-26T15:34:47.420Z,35.12
2022-08-26T15:37:17.075Z,35.07
2022-08-26T15:39:45.232Z,35.01
2022-08-26T15:42:13.382Z,34.95
2022-08-26T15:44:45.647Z,34.82
2022-08-26T15:47:14.680Z,34.81
2022-08-26T15:49:44.868Z,34.75
2022-08-26T15:52:15.712Z,34.72
2022-08-26T15:54:43.835Z,34.76
2022-08-26T15:57:14.361Z,34.72
2022-08-26T15:59:43.453Z,34.73
2022-08-26T16:02:11.686Z,34.70
2022-08-26T16:04:39.852Z,34.63
2022-08-26T16:07:07.929Z,34.52
2022-08-26T16:09:36.180Z,34.47
2022-08-26T16:12:04.377Z,34.44
2022-08-26T16:14:32.590Z,34.34
2022-08-26T16:17:00.804Z,34.18
2022-08-26T16:19:29.419Z,34.16
2022-08-26T16:21:58.014Z,34.23
2022-08-26T16:24:30.220Z,34.06
2022-08-26T16:26:58.827Z,33.88
2022-08-26T16:29:27.879Z,33.64
2022-08-26T16:31:55.902Z,33.32
2022-08-26T16:34:24.318Z,33.22
2022-08-26T16:36:52.831Z,33.23
2022-08-26T16:39:20.993Z,33.07
2022-08-26T16:41:48.952Z,32.79
2022-08-26T16:44:17.065Z,32.41
2022-08-26T16:46:45.922Z,32.12
2022-08-26T16:49:14.441Z,31.87
2022-08-26T16:51:42.414Z,31.68
2022-08-26T16:54:10.680Z,31.53
2022-08-26T16:56:39.303Z,31.24
2022-08-26T16:59:11.778Z,31.01
2022-08-26T17:01:40.036Z,30.72
2022-08-26T17:04:08.057Z,30.48
2022-08-26T17:06:36.389Z,30.18
2022-08-26T17:09:05.272Z,29.90
2022-08-26T17:11:34.327Z,29.66
2022-08-26T17:14:03.091Z,29.36
2022-08-26T17:16:32.052Z,29.07
2022-08-26T17:19:00.452Z,28.75
2022-08-26T17:21:29.222Z,28.36
2022-08-26T17:23:57.250Z,27.99
2022-08-26T17:26:26.095Z,27.63
2022-08-26T17:28:54.499Z,27.28
2022-08-26T17:31:23.518Z,26.98
2022-08-26T17:33:53.508Z,26.73
2022-08-26T17:36:27.923Z,26.48
2022-08-26T17:38:58.432Z,26.27
2022-08-26T17:41:26.995Z,26.07
2022-08-26T17:43:55.281Z,25.88
2022-08-26T17:46:24.186Z,25.66
2022-08-26T17:48:52.290Z,25.46
2022-08-26T17:51:22.128Z,25.29
2022-08-26T17:53:52.027Z,25.15
2022-08-26T17:56:27.247Z,25.01
2022-08-26T17:59:02.525Z,24.88
2022-08-26T18:01:32.762Z,24.75
2022-08-26T18:04:01.149Z,24.64
2022-08-26T18:06:30.781Z,24.57
2022-08-26T18:09:00.321Z,24.51
2022-08-26T18:11:29.311Z,24.45
2022-08-26T18:13:57.323Z,24.39
2022-08-26T18:16:25.377Z,24.33
2022-08-26T18:18:53.731Z,24.28
2022-08-26T18:21:24.720Z,24.22
2022-08-26T18:23:54.218Z,24.19
2022-08-26T18:26:28.582Z,24.15
2022-08-26T18:28:56.965Z,24.10
2022-08-26T18:31:25.996Z,24.06
2022-08-26T18:33:54.535Z,24.02
2022-08-26T18:36:40.860Z,23.97
2022-08-26T18:39:09.861Z,23.93
2022-08-26T18:41:44.142Z,23.88
2022-08-26T18:44:14.136Z,23.84
2022-08-26T18:46:44.200Z,23.78
2022-08-26T18:49:16.458Z,23.73
2022-08-26T18:51:45.108Z,23.68
2022-08-26T18:54:13.475Z,23.65
2022-08-26T18:56:42.463Z,23.60
2022-08-26T18:59:11.842Z,23.53
2022-08-26T19:01:41.087Z,23.48
2022-08-26T19:04:14.114Z,23.44
2022-08-26T19:06:47.161Z,23.39
2022-08-26T19:09:17.843Z,23.34
2022-08-26T19:11:47.201Z,23.30
2022-08-26T19:14:17.777Z,23.27
2022-08-26T19:16:47.820Z,23.24
2022-08-26T19:19:16.481Z,23.21
2022-08-26T19:21:45.662Z,23.18
2022-08-26T19:24:17.692Z,23.18
2022-08-26T19:26:48.421Z,23.16
2022-08-26T19:31:46.424Z,23.10
2022-08-26T19:34:18.327Z,23.07
2022-08-26T19:36:49.476Z,23.03
2022-08-26T19:39:17.504Z,23.00
2022-08-26T19:41:45.632Z,22.98
2022-08-26T19:44:38.304Z,22.96
2022-08-26T19:47:09.610Z,22.95
2022-08-26T19:49:39.278Z,22.94
2022-08-26T19:52:07.529Z,22.93
2022-08-26T19:54:36.450Z,22.92
2022-08-26T19:57:05.839Z,22.91
2022-08-26T19:59:38.748Z,22.91
2022-08-26T20:02:11.373Z,22.88
2022-08-26T20:04:42.044Z,22.85
2022-08-26T20:07:18.577Z,22.83
2022-08-26T20:09:51.048Z,22.81
2022-08-26T20:12:19.597Z,22.79
2022-08-26T20:14:47.993Z,22.76
2022-08-26T20:17:18.787Z,22.74
2022-08-26T20:20:07.199Z,22.74
2022-08-26T20:22:56.220Z,22.74
2022-08-26T20:25:26.331Z,22.68
2022-08-26T20:27:54.697Z,22.64
2022-08-26T20:30:26.386Z,22.62
2022-08-26T20:33:01.053Z,22.58
2022-08-26T20:35:29.617Z,22.48
2022-08-26T20:37:58.004Z,22.40
2022-08-26T20:40:26.546Z,22.34
2022-08-26T20:42:55.251Z,22.29
2022-08-26T20:45:24.077Z,22.23
2022-08-26T20:47:53.000Z,22.15
2022-08-26T20:50:21.347Z,22.10
2022-08-26T20:52:49.883Z,22.05
2022-08-26T20:55:19.088Z,22.03
2022-08-26T20:57:49.992Z,21.99
2022-08-26T21:00:26.494Z,21.96
2022-08-26T21:02:56.941Z,21.92
2022-08-26T21:05:25.191Z,21.88
2022-08-26T21:07:53.702Z,21.84
2022-08-26T21:10:22.611Z,21.80
2022-08-26T21:12:51.836Z,21.77
2022-08-26T21:15:19.949Z,21.74
2022-08-26T21:17:48.679Z,21.69
2022-08-26T21:20:18.932Z,21.64
2022-08-26T21:22:47.426Z,21.60
2022-08-26T21:25:15.752Z,21.53
2022-08-26T21:27:43.957Z,21.48
2022-08-26T21:30:15.053Z,21.33
2022-08-26T21:32:43.595Z,21.40
2022-08-26T21:35:11.670Z,21.34
2022-08-26T21:37:39.938Z,21.29
2022-08-26T21:40:10.544Z,21.24
2022-08-26T21:42:38.903Z,21.18
2022-08-26T21:45:07.589Z,21.13
2022-08-26T21:47:36.697Z,21.06
2022-08-26T21:50:05.743Z,21.02
2022-08-26T21:52:33.774Z,20.98
2022-08-26T21:55:03.536Z,20.94
2022-08-26T21:57:37.157Z,20.90
2022-08-26T22:00:09.296Z,20.84
2022-08-26T22:02:37.591Z,20.79
2022-08-26T22:05:05.982Z,20.76
2022-08-26T22:07:34.369Z,20.73
2022-08-26T22:10:02.443Z,20.72
2022-08-26T22:12:30.451Z,20.71
2022-08-26T22:14:58.879Z,20.70
2022-08-26T22:17:29.419Z,20.67
2022-08-26T22:19:57.464Z,20.65
2022-08-26T22:22:31.885Z,20.59
2022-08-26T22:25:00.379Z,20.51
2022-08-26T22:27:29.712Z,20.44
2022-08-26T22:29:57.937Z,20.33
2022-08-26T22:32:25.828Z,20.20
2022-08-26T22:34:53.890Z,20.05
2022-08-26T22:37:21.884Z,19.90
2022-08-26T22:39:51.942Z,19.80
2022-08-26T22:42:20.026Z,19.72
2022-08-26T22:44:51.370Z,19.68
2022-08-26T22:47:19.376Z,19.64
2022-08-26T22:49:47.969Z,19.58
2022-08-26T22:52:16.006Z,19.51
2022-08-26T22:54:43.998Z,19.45
2022-08-26T22:57:12.067Z,19.42
2022-08-26T22:59:40.725Z,19.40
2022-08-26T23:02:16.153Z,19.39
2022-08-26T23:04:44.075Z,19.39
2022-08-26T23:07:14.486Z,19.42
2022-08-26T23:09:42.738Z,19.46
2022-08-26T23:12:13.273Z,19.49
2022-08-26T23:14:41.763Z,19.51
2022-08-26T23:17:15.887Z,19.50
2022-08-26T23:19:45.199Z,19.46
2022-08-26T23:22:13.288Z,19.47
2022-08-26T23:24:41.629Z,19.46
2022-08-26T23:27:10.177Z,19.43
2022-08-26T23:29:39.912Z,19.41
2022-08-26T23:32:08.072Z,19.39
2022-08-26T23:34:54.757Z,19.36
2022-08-26T23:37:32.454Z,19.34
2022-08-26T23:40:05.278Z,19.31
2022-08-26T23:42:34.717Z,19.26
2022-08-26T23:45:08.139Z,19.22
2022-08-26T23:47:36.776Z,19.21
2022-08-26T23:50:05.951Z,19.22
2022-08-26T23:52:52.652Z,19.26
2022-08-26T23:55:23.781Z,19.36
2022-08-26T23:57:51.855Z,19.38
